sensor_id;sensor_type;location;lat;lon;timestamp;P1;durP1;ratioP1;P2;durP2;ratioP2
36575;SDS011;45700;50.930;5.168;2023-07-02T00:01:23;19.73;;;5.82;;
36575;SDS011;45700;50.930;5.168;2023-07-02T00:05:24;19.98;;;6.85;;
36575;SDS011;45700;50.930;5.168;2023-07-02T00:09:25;24.50;;;6.25;;
36575;SDS011;45700;50.930;5.168;2023-07-02T00:13:26;20.42;;;6.60;;
36575;SDS011;45700;50.930;5.168;2023-07-02T00:17:27;26.90;;;7.45;;
36575;SDS011;45700;50.930;5.168;2023-07-02T00:21:28;27.73;;;7.28;;
36575;SDS011;45700;50.930;5.168;2023-07-02T00:25:29;24.90;;;7.32;;
36575;SDS011;45700;50.930;5.168;2023-07-02T00:29:30;23.52;;;7.07;;
36575;SDS011;45700;50.930;5.168;2023-07-02T00:33:31;20.33;;;7.55;;
36575;SDS011;45700;50.930;5.168;2023-07-02T00:37:32;27.15;;;8.20;;
36575;SDS011;45700;50.930;5.168;2023-07-02T00:41:33;25.55;;;8.20;;
36575;SDS011;45700;50.930;5.168;2023-07-02T00:45:34;22.92;;;8.20;;
36575;SDS011;45700;50.930;5.168;2023-07-02T00:49:35;27.88;;;8.68;;
36575;SDS011;45700;50.930;5.168;2023-07-02T00:53:36;23.15;;;8.15;;
36575;SDS011;45700;50.930;5.168;2023-07-02T00:57:37;22.85;;;7.93;;
36575;SDS011;45700;50.930;5.168;2023-07-02T01:01:40;26.35;;;7.63;;
36575;SDS011;45700;50.930;5.168;2023-07-02T01:05:41;25.00;;;8.50;;
36575;SDS011;45700;50.930;5.168;2023-07-02T01:09:42;31.05;;;8.95;;
36575;SDS011;45700;50.930;5.168;2023-07-02T01:13:43;23.60;;;8.05;;
36575;SDS011;45700;50.930;5.168;2023-07-02T01:17:45;30.90;;;8.70;;
36575;SDS011;45700;50.930;5.168;2023-07-02T01:21:47;27.50;;;9.27;;
36575;SDS011;45700;50.930;5.168;2023-07-02T01:25:51;33.58;;;9.52;;
36575;SDS011;45700;50.930;5.168;2023-07-02T01:29:52;33.20;;;9.35;;
36575;SDS011;45700;50.930;5.168;2023-07-02T01:33:53;29.35;;;8.93;;
36575;SDS011;45700;50.930;5.168;2023-07-02T01:37:54;35.13;;;9.23;;
36575;SDS011;45700;50.930;5.168;2023-07-02T01:42:00;27.80;;;8.38;;
36575;SDS011;45700;50.930;5.168;2023-07-02T01:46:07;32.42;;;9.93;;
36575;SDS011;45700;50.930;5.168;2023-07-02T01:50:08;30.10;;;8.65;;
36575;SDS011;45700;50.930;5.168;2023-07-02T01:54:09;33.67;;;9.60;;
36575;SDS011;45700;50.930;5.168;2023-07-02T01:58:10;20.13;;;8.80;;
36575;SDS011;45700;50.930;5.168;2023-07-02T02:02:11;34.67;;;9.60;;
36575;SDS011;45700;50.930;5.168;2023-07-02T02:06:12;25.83;;;9.45;;
36575;SDS011;45700;50.930;5.168;2023-07-02T02:10:13;29.08;;;9.00;;
36575;SDS011;45700;50.930;5.168;2023-07-02T02:14:14;32.20;;;9.85;;
36575;SDS011;45700;50.930;5.168;2023-07-02T02:18:15;33.30;;;10.25;;
36575;SDS011;45700;50.930;5.168;2023-07-02T02:22:16;25.83;;;9.23;;
36575;SDS011;45700;50.930;5.168;2023-07-02T02:26:17;28.25;;;9.60;;
36575;SDS011;45700;50.930;5.168;2023-07-02T02:30:21;29.30;;;9.98;;
36575;SDS011;45700;50.930;5.168;2023-07-02T02:34:22;32.05;;;10.48;;
36575;SDS011;45700;50.930;5.168;2023-07-02T02:38:23;30.90;;;10.75;;
36575;SDS011;45700;50.930;5.168;2023-07-02T02:42:25;33.72;;;10.52;;
36575;SDS011;45700;50.930;5.168;2023-07-02T02:46:26;34.47;;;10.80;;
36575;SDS011;45700;50.930;5.168;2023-07-02T02:50:27;30.80;;;10.60;;
36575;SDS011;45700;50.930;5.168;2023-07-02T02:54:28;31.70;;;11.30;;
36575;SDS011;45700;50.930;5.168;2023-07-02T02:58:29;34.78;;;11.25;;
36575;SDS011;45700;50.930;5.168;2023-07-02T03:02:30;39.60;;;10.77;;
36575;SDS011;45700;50.930;5.168;2023-07-02T03:06:31;31.05;;;10.18;;
36575;SDS011;45700;50.930;5.168;2023-07-02T03:10:32;38.17;;;12.05;;
36575;SDS011;45700;50.930;5.168;2023-07-02T03:14:33;38.53;;;11.48;;
36575;SDS011;45700;50.930;5.168;2023-07-02T03:18:34;35.97;;;10.60;;
36575;SDS011;45700;50.930;5.168;2023-07-02T03:22:35;33.95;;;10.85;;
36575;SDS011;45700;50.930;5.168;2023-07-02T03:26:36;37.30;;;11.52;;
36575;SDS011;45700;50.930;5.168;2023-07-02T03:30:37;41.28;;;12.15;;
36575;SDS011;45700;50.930;5.168;2023-07-02T03:34:38;42.10;;;11.60;;
36575;SDS011;45700;50.930;5.168;2023-07-02T03:38:39;35.75;;;11.40;;
36575;SDS011;45700;50.930;5.168;2023-07-02T03:42:40;38.88;;;11.48;;
36575;SDS011;45700;50.930;5.168;2023-07-02T03:46:41;45.20;;;12.48;;
36575;SDS011;45700;50.930;5.168;2023-07-02T03:50:42;33.63;;;11.60;;
36575;SDS011;45700;50.930;5.168;2023-07-02T03:54:43;40.47;;;12.27;;
36575;SDS011;45700;50.930;5.168;2023-07-02T03:58:44;35.13;;;12.00;;
36575;SDS011;45700;50.930;5.168;2023-07-02T04:02:45;43.75;;;11.77;;
36575;SDS011;45700;50.930;5.168;2023-07-02T04:06:46;37.92;;;12.10;;
36575;SDS011;45700;50.930;5.168;2023-07-02T04:10:47;39.28;;;12.60;;
36575;SDS011;45700;50.930;5.168;2023-07-02T04:14:48;50.95;;;13.05;;
36575;SDS011;45700;50.930;5.168;2023-07-02T04:18:49;44.72;;;13.82;;
36575;SDS011;45700;50.930;5.168;2023-07-02T04:22:50;52.63;;;14.32;;
36575;SDS011;45700;50.930;5.168;2023-07-02T04:26:52;34.30;;;11.50;;
36575;SDS011;45700;50.930;5.168;2023-07-02T04:30:53;43.00;;;13.00;;
36575;SDS011;45700;50.930;5.168;2023-07-02T04:34:54;39.92;;;12.18;;
36575;SDS011;45700;50.930;5.168;2023-07-02T04:38:56;39.17;;;12.02;;
36575;SDS011;45700;50.930;5.168;2023-07-02T04:42:57;49.17;;;14.15;;
36575;SDS011;45700;50.930;5.168;2023-07-02T04:46:58;48.20;;;13.93;;
36575;SDS011;45700;50.930;5.168;2023-07-02T04:50:59;43.88;;;13.48;;
36575;SDS011;45700;50.930;5.168;2023-07-02T04:55:02;40.75;;;13.05;;
36575;SDS011;45700;50.930;5.168;2023-07-02T04:59:03;40.78;;;12.48;;
36575;SDS011;45700;50.930;5.168;2023-07-02T05:03:04;44.63;;;13.80;;
36575;SDS011;45700;50.930;5.168;2023-07-02T05:07:05;46.03;;;13.63;;
36575;SDS011;45700;50.930;5.168;2023-07-02T05:11:06;42.63;;;12.45;;
36575;SDS011;45700;50.930;5.168;2023-07-02T05:15:08;40.60;;;12.77;;
36575;SDS011;45700;50.930;5.168;2023-07-02T05:19:09;44.60;;;13.18;;
36575;SDS011;45700;50.930;5.168;2023-07-02T05:23:10;42.88;;;14.70;;
36575;SDS011;45700;50.930;5.168;2023-07-02T05:27:11;50.72;;;13.02;;
36575;SDS011;45700;50.930;5.168;2023-07-02T05:31:12;48.25;;;13.73;;
36575;SDS011;45700;50.930;5.168;2023-07-02T05:35:13;42.58;;;13.20;;
36575;SDS011;45700;50.930;5.168;2023-07-02T05:39:14;50.45;;;14.65;;
36575;SDS011;45700;50.930;5.168;2023-07-02T05:43:15;46.58;;;13.35;;
36575;SDS011;45700;50.930;5.168;2023-07-02T05:47:16;47.05;;;13.95;;
36575;SDS011;45700;50.930;5.168;2023-07-02T05:51:23;50.45;;;14.57;;
36575;SDS011;45700;50.930;5.168;2023-07-02T05:55:24;43.25;;;13.65;;
36575;SDS011;45700;50.930;5.168;2023-07-02T05:59:25;46.85;;;14.52;;
36575;SDS011;45700;50.930;5.168;2023-07-02T06:03:26;42.53;;;13.10;;
36575;SDS011;45700;50.930;5.168;2023-07-02T06:07:27;39.58;;;12.65;;
36575;SDS011;45700;50.930;5.168;2023-07-02T06:11:28;43.70;;;14.32;;
36575;SDS011;45700;50.930;5.168;2023-07-02T06:15:29;48.08;;;14.60;;
36575;SDS011;45700;50.930;5.168;2023-07-02T06:19:30;45.65;;;14.30;;
36575;SDS011;45700;50.930;5.168;2023-07-02T06:23:42;38.33;;;13.82;;
36575;SDS011;45700;50.930;5.168;2023-07-02T06:27:43;43.92;;;14.50;;
36575;SDS011;45700;50.930;5.168;2023-07-02T06:31:44;57.10;;;15.70;;
36575;SDS011;45700;50.930;5.168;2023-07-02T06:35:45;47.75;;;13.98;;
36575;SDS011;45700;50.930;5.168;2023-07-02T06:39:46;50.75;;;14.75;;
36575;SDS011;45700;50.930;5.168;2023-07-02T06:43:47;46.40;;;13.18;;
36575;SDS011;45700;50.930;5.168;2023-07-02T06:47:48;38.85;;;14.65;;
36575;SDS011;45700;50.930;5.168;2023-07-02T06:51:49;41.25;;;13.25;;
36575;SDS011;45700;50.930;5.168;2023-07-02T06:55:50;42.03;;;14.32;;
36575;SDS011;45700;50.930;5.168;2023-07-02T06:59:51;45.83;;;14.32;;
36575;SDS011;45700;50.930;5.168;2023-07-02T07:03:52;48.60;;;13.40;;
36575;SDS011;45700;50.930;5.168;2023-07-02T07:07:53;50.55;;;13.98;;
36575;SDS011;45700;50.930;5.168;2023-07-02T07:11:54;53.40;;;15.00;;
36575;SDS011;45700;50.930;5.168;2023-07-02T07:15:55;47.20;;;15.15;;
36575;SDS011;45700;50.930;5.168;2023-07-02T07:19:56;43.10;;;13.35;;
36575;SDS011;45700;50.930;5.168;2023-07-02T07:23:57;42.85;;;12.35;;
36575;SDS011;45700;50.930;5.168;2023-07-02T07:28:01;46.40;;;12.55;;
36575;SDS011;45700;50.930;5.168;2023-07-02T07:32:02;43.78;;;12.98;;
36575;SDS011;45700;50.930;5.168;2023-07-02T07:36:03;45.78;;;12.63;;
36575;SDS011;45700;50.930;5.168;2023-07-02T07:40:04;33.70;;;11.48;;
36575;SDS011;45700;50.930;5.168;2023-07-02T07:44:06;35.50;;;10.18;;
36575;SDS011;45700;50.930;5.168;2023-07-02T07:48:07;34.53;;;10.50;;
36575;SDS011;45700;50.930;5.168;2023-07-02T07:52:08;31.92;;;9.70;;
36575;SDS011;45700;50.930;5.168;2023-07-02T07:56:09;29.95;;;9.13;;
36575;SDS011;45700;50.930;5.168;2023-07-02T08:00:10;33.63;;;9.73;;
36575;SDS011;45700;50.930;5.168;2023-07-02T08:04:11;27.95;;;9.07;;
36575;SDS011;45700;50.930;5.168;2023-07-02T08:08:12;26.67;;;8.63;;
36575;SDS011;45700;50.930;5.168;2023-07-02T08:12:13;29.17;;;10.23;;
36575;SDS011;45700;50.930;5.168;2023-07-02T08:16:14;27.48;;;8.88;;
36575;SDS011;45700;50.930;5.168;2023-07-02T08:20:15;23.88;;;8.02;;
36575;SDS011;45700;50.930;5.168;2023-07-02T08:24:17;28.33;;;7.60;;
36575;SDS011;45700;50.930;5.168;2023-07-02T08:28:18;22.13;;;7.72;;
36575;SDS011;45700;50.930;5.168;2023-07-02T08:32:19;27.88;;;7.45;;
36575;SDS011;45700;50.930;5.168;2023-07-02T08:36:20;27.10;;;7.60;;
36575;SDS011;45700;50.930;5.168;2023-07-02T08:40:21;25.40;;;6.88;;
36575;SDS011;45700;50.930;5.168;2023-07-02T08:44:22;21.05;;;6.65;;
36575;SDS011;45700;50.930;5.168;2023-07-02T08:48:23;20.52;;;6.47;;
36575;SDS011;45700;50.930;5.168;2023-07-02T08:52:26;21.42;;;7.45;;
36575;SDS011;45700;50.930;5.168;2023-07-02T08:56:27;21.50;;;6.57;;
36575;SDS011;45700;50.930;5.168;2023-07-02T09:00:28;20.00;;;6.35;;
36575;SDS011;45700;50.930;5.168;2023-07-02T09:04:35;20.35;;;6.15;;
36575;SDS011;45700;50.930;5.168;2023-07-02T09:08:36;18.50;;;5.93;;
36575;SDS011;45700;50.930;5.168;2023-07-02T09:12:37;16.17;;;5.10;;
36575;SDS011;45700;50.930;5.168;2023-07-02T09:16:39;18.20;;;5.57;;
36575;SDS011;45700;50.930;5.168;2023-07-02T09:20:41;18.30;;;5.72;;
36575;SDS011;45700;50.930;5.168;2023-07-02T09:24:50;19.85;;;5.90;;
36575;SDS011;45700;50.930;5.168;2023-07-02T09:29:00;16.75;;;4.75;;
36575;SDS011;45700;50.930;5.168;2023-07-02T09:33:08;17.38;;;4.72;;
36575;SDS011;45700;50.930;5.168;2023-07-02T09:37:09;18.45;;;4.95;;
36575;SDS011;45700;50.930;5.168;2023-07-02T09:41:10;15.65;;;4.72;;
36575;SDS011;45700;50.930;5.168;2023-07-02T09:45:11;20.00;;;5.07;;
36575;SDS011;45700;50.930;5.168;2023-07-02T09:49:14;16.10;;;5.20;;
36575;SDS011;45700;50.930;5.168;2023-07-02T09:53:15;15.40;;;4.65;;
36575;SDS011;45700;50.930;5.168;2023-07-02T09:57:16;13.90;;;4.75;;
36575;SDS011;45700;50.930;5.168;2023-07-02T10:01:17;14.57;;;4.90;;
36575;SDS011;45700;50.930;5.168;2023-07-02T10:09:48;19.35;;;4.90;;
36575;SDS011;45700;50.930;5.168;2023-07-02T10:14:07;16.13;;;5.30;;
36575;SDS011;45700;50.930;5.168;2023-07-02T10:18:08;17.50;;;5.55;;
36575;SDS011;45700;50.930;5.168;2023-07-02T10:22:09;19.80;;;5.63;;
36575;SDS011;45700;50.930;5.168;2023-07-02T10:26:17;18.00;;;5.88;;
36575;SDS011;45700;50.930;5.168;2023-07-02T10:30:18;20.33;;;6.43;;
36575;SDS011;45700;50.930;5.168;2023-07-02T10:34:34;23.00;;;6.22;;
36575;SDS011;45700;50.930;5.168;2023-07-02T10:38:35;21.55;;;6.50;;
36575;SDS011;45700;50.930;5.168;2023-07-02T10:42:55;19.98;;;6.35;;
36575;SDS011;45700;50.930;5.168;2023-07-02T10:46:57;22.80;;;7.18;;
36575;SDS011;45700;50.930;5.168;2023-07-02T10:50:58;18.45;;;5.80;;
36575;SDS011;45700;50.930;5.168;2023-07-02T10:54:59;18.00;;;5.93;;
36575;SDS011;45700;50.930;5.168;2023-07-02T10:59:00;26.38;;;7.20;;
36575;SDS011;45700;50.930;5.168;2023-07-02T11:03:02;22.05;;;7.03;;
36575;SDS011;45700;50.930;5.168;2023-07-02T11:07:04;22.58;;;7.40;;
36575;SDS011;45700;50.930;5.168;2023-07-02T11:11:06;26.70;;;7.00;;
36575;SDS011;45700;50.930;5.168;2023-07-02T11:15:10;19.77;;;6.00;;
36575;SDS011;45700;50.930;5.168;2023-07-02T11:19:11;25.95;;;7.90;;
36575;SDS011;45700;50.930;5.168;2023-07-02T11:23:25;19.67;;;5.93;;
36575;SDS011;45700;50.930;5.168;2023-07-02T11:27:27;21.15;;;6.43;;
36575;SDS011;45700;50.930;5.168;2023-07-02T11:31:28;21.38;;;6.38;;
36575;SDS011;45700;50.930;5.168;2023-07-02T11:35:35;21.48;;;6.35;;
36575;SDS011;45700;50.930;5.168;2023-07-02T11:39:36;22.05;;;5.72;;
36575;SDS011;45700;50.930;5.168;2023-07-02T11:43:37;24.38;;;6.93;;
36575;SDS011;45700;50.930;5.168;2023-07-02T11:47:38;15.63;;;6.07;;
36575;SDS011;45700;50.930;5.168;2023-07-02T11:51:40;19.70;;;6.63;;
36575;SDS011;45700;50.930;5.168;2023-07-02T11:55:41;19.33;;;6.45;;
36575;SDS011;45700;50.930;5.168;2023-07-02T11:59:42;21.45;;;6.28;;
36575;SDS011;45700;50.930;5.168;2023-07-02T12:03:44;24.85;;;7.00;;
36575;SDS011;45700;50.930;5.168;2023-07-02T12:07:45;18.25;;;6.15;;
36575;SDS011;45700;50.930;5.168;2023-07-02T12:11:46;18.98;;;7.18;;
36575;SDS011;45700;50.930;5.168;2023-07-02T12:15:47;23.58;;;6.95;;
36575;SDS011;45700;50.930;5.168;2023-07-02T12:19:51;28.65;;;8.48;;
36575;SDS011;45700;50.930;5.168;2023-07-02T12:23:52;58.50;;;23.58;;
36575;SDS011;45700;50.930;5.168;2023-07-02T12:27:53;18.40;;;6.20;;
36575;SDS011;45700;50.930;5.168;2023-07-02T12:31:54;17.38;;;5.90;;
36575;SDS011;45700;50.930;5.168;2023-07-02T12:35:55;22.58;;;6.63;;
36575;SDS011;45700;50.930;5.168;2023-07-02T12:39:56;19.30;;;6.30;;
36575;SDS011;45700;50.930;5.168;2023-07-02T12:43:57;25.27;;;6.70;;
36575;SDS011;45700;50.930;5.168;2023-07-02T12:47:58;19.20;;;6.40;;
36575;SDS011;45700;50.930;5.168;2023-07-02T12:51:59;20.52;;;6.82;;
36575;SDS011;45700;50.930;5.168;2023-07-02T12:56:00;19.23;;;6.90;;
36575;SDS011;45700;50.930;5.168;2023-07-02T13:00:02;35.33;;;13.65;;
36575;SDS011;45700;50.930;5.168;2023-07-02T13:04:06;38.90;;;13.18;;
36575;SDS011;45700;50.930;5.168;2023-07-02T13:08:07;34.40;;;11.95;;
36575;SDS011;45700;50.930;5.168;2023-07-02T13:12:08;22.05;;;6.88;;
36575;SDS011;45700;50.930;5.168;2023-07-02T13:16:09;21.52;;;6.25;;
36575;SDS011;45700;50.930;5.168;2023-07-02T13:20:10;23.25;;;6.65;;
36575;SDS011;45700;50.930;5.168;2023-07-02T13:24:11;20.58;;;6.32;;
36575;SDS011;45700;50.930;5.168;2023-07-02T13:28:12;20.80;;;7.38;;
36575;SDS011;45700;50.930;5.168;2023-07-02T13:32:13;20.65;;;6.60;;
36575;SDS011;45700;50.930;5.168;2023-07-02T13:36:14;20.35;;;5.95;;
36575;SDS011;45700;50.930;5.168;2023-07-02T13:40:15;13.60;;;5.22;;
36575;SDS011;45700;50.930;5.168;2023-07-02T13:44:16;22.20;;;6.18;;
36575;SDS011;45700;50.930;5.168;2023-07-02T13:48:17;21.17;;;6.28;;
36575;SDS011;45700;50.930;5.168;2023-07-02T13:52:18;20.27;;;5.78;;
36575;SDS011;45700;50.930;5.168;2023-07-02T13:56:19;19.23;;;7.78;;
36575;SDS011;45700;50.930;5.168;2023-07-02T14:00:20;16.10;;;5.43;;
36575;SDS011;45700;50.930;5.168;2023-07-02T14:04:21;15.32;;;5.15;;
36575;SDS011;45700;50.930;5.168;2023-07-02T14:08:22;12.10;;;5.22;;
36575;SDS011;45700;50.930;5.168;2023-07-02T14:12:23;19.80;;;6.60;;
36575;SDS011;45700;50.930;5.168;2023-07-02T14:16:24;12.60;;;4.97;;
36575;SDS011;45700;50.930;5.168;2023-07-02T14:20:25;16.92;;;5.43;;
36575;SDS011;45700;50.930;5.168;2023-07-02T14:24:26;18.80;;;5.50;;
36575;SDS011;45700;50.930;5.168;2023-07-02T14:28:30;18.70;;;5.03;;
36575;SDS011;45700;50.930;5.168;2023-07-02T14:32:31;20.30;;;5.68;;
36575;SDS011;45700;50.930;5.168;2023-07-02T14:36:32;16.92;;;6.65;;
36575;SDS011;45700;50.930;5.168;2023-07-02T14:40:33;15.93;;;5.22;;
36575;SDS011;45700;50.930;5.168;2023-07-02T14:44:34;13.13;;;5.07;;
36575;SDS011;45700;50.930;5.168;2023-07-02T14:48:35;16.48;;;5.03;;
36575;SDS011;45700;50.930;5.168;2023-07-02T14:52:36;15.77;;;4.88;;
36575;SDS011;45700;50.930;5.168;2023-07-02T14:56:37;15.27;;;5.25;;
36575;SDS011;45700;50.930;5.168;2023-07-02T15:00:43;14.38;;;5.05;;
36575;SDS011;45700;50.930;5.168;2023-07-02T15:04:44;17.70;;;5.15;;
36575;SDS011;45700;50.930;5.168;2023-07-02T15:08:45;18.90;;;5.93;;
36575;SDS011;45700;50.930;5.168;2023-07-02T15:12:46;17.52;;;5.28;;
36575;SDS011;45700;50.930;5.168;2023-07-02T15:16:47;13.57;;;5.30;;
36575;SDS011;45700;50.930;5.168;2023-07-02T15:20:51;14.05;;;4.45;;
36575;SDS011;45700;50.930;5.168;2023-07-02T15:24:56;14.68;;;4.82;;
36575;SDS011;45700;50.930;5.168;2023-07-02T15:28:57;15.63;;;5.93;;
36575;SDS011;45700;50.930;5.168;2023-07-02T15:32:58;21.83;;;5.43;;
36575;SDS011;45700;50.930;5.168;2023-07-02T15:36:59;19.95;;;5.85;;
36575;SDS011;45700;50.930;5.168;2023-07-02T15:41:33;17.15;;;5.68;;
36575;SDS011;45700;50.930;5.168;2023-07-02T15:45:27;16.70;;;5.30;;
36575;SDS011;45700;50.930;5.168;2023-07-02T15:49:28;16.27;;;4.97;;
36575;SDS011;45700;50.930;5.168;2023-07-02T15:53:31;22.45;;;6.18;;
36575;SDS011;45700;50.930;5.168;2023-07-02T15:57:32;13.52;;;5.03;;
36575;SDS011;45700;50.930;5.168;2023-07-02T16:01:34;14.23;;;4.85;;
36575;SDS011;45700;50.930;5.168;2023-07-02T16:05:37;13.07;;;4.28;;
36575;SDS011;45700;50.930;5.168;2023-07-02T16:09:38;16.45;;;4.85;;
36575;SDS011;45700;50.930;5.168;2023-07-02T16:13:40;19.73;;;5.82;;
36575;SDS011;45700;50.930;5.168;2023-07-02T16:17:41;15.25;;;5.00;;
36575;SDS011;45700;50.930;5.168;2023-07-02T16:21:42;21.52;;;4.50;;
36575;SDS011;45700;50.930;5.168;2023-07-02T16:25:51;17.42;;;5.20;;
36575;SDS011;45700;50.930;5.168;2023-07-02T16:29:53;20.67;;;5.50;;
36575;SDS011;45700;50.930;5.168;2023-07-02T16:33:56;15.55;;;4.53;;
36575;SDS011;45700;50.930;5.168;2023-07-02T16:37:57;16.33;;;5.10;;
36575;SDS011;45700;50.930;5.168;2023-07-02T16:41:58;18.27;;;4.50;;
36575;SDS011;45700;50.930;5.168;2023-07-02T16:45:59;15.65;;;4.68;;
36575;SDS011;45700;50.930;5.168;2023-07-02T16:50:01;12.77;;;4.80;;
36575;SDS011;45700;50.930;5.168;2023-07-02T16:54:02;14.27;;;5.18;;
36575;SDS011;45700;50.930;5.168;2023-07-02T16:58:03;15.10;;;4.60;;
36575;SDS011;45700;50.930;5.168;2023-07-02T17:02:06;16.33;;;4.93;;
36575;SDS011;45700;50.930;5.168;2023-07-02T17:06:08;11.40;;;4.65;;
36575;SDS011;45700;50.930;5.168;2023-07-02T17:10:09;14.32;;;3.95;;
36575;SDS011;45700;50.930;5.168;2023-07-02T17:14:10;18.42;;;4.88;;
36575;SDS011;45700;50.930;5.168;2023-07-02T17:18:11;11.75;;;4.18;;
36575;SDS011;45700;50.930;5.168;2023-07-02T17:22:14;21.70;;;4.20;;
36575;SDS011;45700;50.930;5.168;2023-07-02T17:26:15;12.23;;;3.90;;
36575;SDS011;45700;50.930;5.168;2023-07-02T17:30:16;11.38;;;4.32;;
36575;SDS011;45700;50.930;5.168;2023-07-02T17:34:18;12.15;;;4.50;;
36575;SDS011;45700;50.930;5.168;2023-07-02T17:38:19;17.52;;;4.70;;
36575;SDS011;45700;50.930;5.168;2023-07-02T17:42:21;19.92;;;4.18;;
36575;SDS011;45700;50.930;5.168;2023-07-02T17:46:22;13.77;;;3.95;;
36575;SDS011;45700;50.930;5.168;2023-07-02T17:50:23;11.77;;;3.50;;
36575;SDS011;45700;50.930;5.168;2023-07-02T17:54:24;13.85;;;3.53;;
36575;SDS011;45700;50.930;5.168;2023-07-02T17:58:26;9.43;;;3.30;;
36575;SDS011;45700;50.930;5.168;2023-07-02T18:02:27;13.23;;;3.17;;
36575;SDS011;45700;50.930;5.168;2023-07-02T18:06:28;16.58;;;3.47;;
36575;SDS011;45700;50.930;5.168;2023-07-02T18:10:29;8.45;;;2.80;;
36575;SDS011;45700;50.930;5.168;2023-07-02T18:14:29;6.40;;;2.80;;
36575;SDS011;45700;50.930;5.168;2023-07-02T18:18:30;11.43;;;3.15;;
36575;SDS011;45700;50.930;5.168;2023-07-02T18:22:32;11.40;;;3.00;;
36575;SDS011;45700;50.930;5.168;2023-07-02T18:26:33;9.18;;;3.03;;
36575;SDS011;45700;50.930;5.168;2023-07-02T18:30:34;12.57;;;2.72;;
36575;SDS011;45700;50.930;5.168;2023-07-02T18:34:39;12.40;;;2.97;;
36575;SDS011;45700;50.930;5.168;2023-07-02T18:38:40;16.80;;;3.55;;
36575;SDS011;45700;50.930;5.168;2023-07-02T18:42:41;12.18;;;2.92;;
36575;SDS011;45700;50.930;5.168;2023-07-02T18:46:42;11.30;;;3.25;;
36575;SDS011;45700;50.930;5.168;2023-07-02T18:50:43;12.50;;;3.05;;
36575;SDS011;45700;50.930;5.168;2023-07-02T18:54:44;11.07;;;2.50;;
36575;SDS011;45700;50.930;5.168;2023-07-02T18:58:47;12.27;;;2.95;;
36575;SDS011;45700;50.930;5.168;2023-07-02T19:02:48;9.45;;;2.42;;
36575;SDS011;45700;50.930;5.168;2023-07-02T19:06:49;7.97;;;2.25;;
36575;SDS011;45700;50.930;5.168;2023-07-02T19:10:58;12.07;;;2.47;;
36575;SDS011;45700;50.930;5.168;2023-07-02T19:14:59;16.48;;;3.40;;
36575;SDS011;45700;50.930;5.168;2023-07-02T19:19:00;10.05;;;2.35;;
36575;SDS011;45700;50.930;5.168;2023-07-02T19:23:01;13.25;;;3.35;;
36575;SDS011;45700;50.930;5.168;2023-07-02T19:27:03;10.45;;;2.10;;
36575;SDS011;45700;50.930;5.168;2023-07-02T19:31:05;7.80;;;2.10;;
36575;SDS011;45700;50.930;5.168;2023-07-02T19:35:06;9.50;;;2.17;;
36575;SDS011;45700;50.930;5.168;2023-07-02T19:39:08;12.00;;;2.15;;
36575;SDS011;45700;50.930;5.168;2023-07-02T19:43:09;9.07;;;1.67;;
36575;SDS011;45700;50.930;5.168;2023-07-02T19:47:11;15.48;;;2.00;;
36575;SDS011;45700;50.930;5.168;2023-07-02T19:51:14;9.65;;;2.05;;
36575;SDS011;45700;50.930;5.168;2023-07-02T19:55:15;12.43;;;1.98;;
36575;SDS011;45700;50.930;5.168;2023-07-02T19:59:16;7.75;;;1.73;;
36575;SDS011;45700;50.930;5.168;2023-07-02T20:03:17;5.65;;;1.52;;
36575;SDS011;45700;50.930;5.168;2023-07-02T20:07:18;7.68;;;1.50;;
36575;SDS011;45700;50.930;5.168;2023-07-02T20:11:19;7.82;;;1.67;;
36575;SDS011;45700;50.930;5.168;2023-07-02T20:15:20;6.55;;;1.63;;
36575;SDS011;45700;50.930;5.168;2023-07-02T20:19:21;9.65;;;2.10;;
36575;SDS011;45700;50.930;5.168;2023-07-02T20:23:22;8.05;;;1.92;;
36575;SDS011;45700;50.930;5.168;2023-07-02T20:27:26;14.25;;;1.77;;
36575;SDS011;45700;50.930;5.168;2023-07-02T20:31:28;17.13;;;2.38;;
36575;SDS011;45700;50.930;5.168;2023-07-02T20:35:29;9.70;;;2.10;;
36575;SDS011;45700;50.930;5.168;2023-07-02T20:39:30;8.93;;;1.67;;
36575;SDS011;45700;50.930;5.168;2023-07-02T20:43:31;7.07;;;1.63;;
36575;SDS011;45700;50.930;5.168;2023-07-02T20:47:40;6.35;;;2.00;;
36575;SDS011;45700;50.930;5.168;2023-07-02T20:51:42;15.02;;;1.80;;
36575;SDS011;45700;50.930;5.168;2023-07-02T20:55:51;11.40;;;2.08;;
36575;SDS011;45700;50.930;5.168;2023-07-02T20:59:52;10.35;;;2.28;;
36575;SDS011;45700;50.930;5.168;2023-07-02T21:03:53;10.50;;;2.47;;
36575;SDS011;45700;50.930;5.168;2023-07-02T21:07:55;13.05;;;2.22;;
36575;SDS011;45700;50.930;5.168;2023-07-02T21:11:56;7.65;;;1.73;;
36575;SDS011;45700;50.930;5.168;2023-07-02T21:15:58;11.00;;;2.17;;
36575;SDS011;45700;50.930;5.168;2023-07-02T21:20:00;10.32;;;1.90;;
36575;SDS011;45700;50.930;5.168;2023-07-02T21:24:01;12.48;;;1.65;;
36575;SDS011;45700;50.930;5.168;2023-07-02T21:28:02;10.88;;;2.20;;
36575;SDS011;45700;50.930;5.168;2023-07-02T21:32:03;10.60;;;2.42;;
36575;SDS011;45700;50.930;5.168;2023-07-02T21:36:05;12.95;;;2.30;;
36575;SDS011;45700;50.930;5.168;2023-07-02T21:40:10;13.52;;;2.55;;
36575;SDS011;45700;50.930;5.168;2023-07-02T21:44:11;10.90;;;3.47;;
36575;SDS011;45700;50.930;5.168;2023-07-02T21:48:12;10.63;;;2.47;;
36575;SDS011;45700;50.930;5.168;2023-07-02T21:52:13;14.75;;;2.20;;
36575;SDS011;45700;50.930;5.168;2023-07-02T21:56:15;10.77;;;1.73;;
36575;SDS011;45700;50.930;5.168;2023-07-02T22:00:16;10.30;;;1.83;;
36575;SDS011;45700;50.930;5.168;2023-07-02T22:04:17;8.52;;;2.00;;
36575;SDS011;45700;50.930;5.168;2023-07-02T22:08:18;9.63;;;1.92;;
36575;SDS011;45700;50.930;5.168;2023-07-02T22:12:19;5.25;;;2.00;;
36575;SDS011;45700;50.930;5.168;2023-07-02T22:16:20;11.15;;;2.10;;
36575;SDS011;45700;50.930;5.168;2023-07-02T22:20:21;10.55;;;2.10;;
36575;SDS011;45700;50.930;5.168;2023-07-02T22:24:22;10.80;;;2.13;;
36575;SDS011;45700;50.930;5.168;2023-07-02T22:28:23;10.23;;;1.77;;
36575;SDS011;45700;50.930;5.168;2023-07-02T22:32:24;10.63;;;1.90;;
36575;SDS011;45700;50.930;5.168;2023-07-02T22:36:25;8.98;;;2.28;;
36575;SDS011;45700;50.930;5.168;2023-07-02T22:40:26;19.75;;;2.80;;
36575;SDS011;45700;50.930;5.168;2023-07-02T22:44:29;9.70;;;1.85;;
36575;SDS011;45700;50.930;5.168;2023-07-02T22:48:30;10.98;;;2.35;;
36575;SDS011;45700;50.930;5.168;2023-07-02T22:52:31;8.70;;;1.92;;
36575;SDS011;45700;50.930;5.168;2023-07-02T22:56:34;12.23;;;2.15;;
36575;SDS011;45700;50.930;5.168;2023-07-02T23:00:35;21.83;;;2.65;;
36575;SDS011;45700;50.930;5.168;2023-07-02T23:04:36;11.98;;;1.90;;
36575;SDS011;45700;50.930;5.168;2023-07-02T23:08:37;14.55;;;2.60;;
36575;SDS011;45700;50.930;5.168;2023-07-02T23:12:41;16.33;;;2.75;;
36575;SDS011;45700;50.930;5.168;2023-07-02T23:16:43;12.82;;;2.47;;
36575;SDS011;45700;50.930;5.168;2023-07-02T23:20:44;10.40;;;2.38;;
36575;SDS011;45700;50.930;5.168;2023-07-02T23:24:45;16.35;;;2.33;;
36575;SDS011;45700;50.930;5.168;2023-07-02T23:28:47;7.38;;;2.35;;
36575;SDS011;45700;50.930;5.168;2023-07-02T23:32:54;11.65;;;2.72;;
36575;SDS011;45700;50.930;5.168;2023-07-02T23:36:55;17.27;;;2.75;;
36575;SDS011;45700;50.930;5.168;2023-07-02T23:40:56;7.35;;;2.08;;
36575;SDS011;45700;50.930;5.168;2023-07-02T23:44:57;15.70;;;2.70;;
36575;SDS011;45700;50.930;5.168;2023-07-02T23:48:58;12.98;;;2.58;;
36575;SDS011;45700;50.930;5.168;2023-07-02T23:52:59;14.00;;;2.70;;
36575;SDS011;45700;50.930;5.168;2023-07-02T23:57:00;16.75;;;2.60;;
